createdAt,value
2022-08-23T00:00:51.075Z,72.03
2022-08-23T00:03:22.760Z,72.12
2022-08-23T00:05:54.404Z,72.65
2022-08-23T00:08:26.072Z,72.93
2022-08-23T00:10:58.211Z,72.89
2022-08-23T00:13:47.525Z,72.84
2022-08-23T00:16:19.829Z,72.53
2022-08-23T00:18:51.453Z,72.70
2022-08-23T00:21:23.378Z,72.68
2022-08-23T00:23:55.502Z,73.03
2022-08-23T00:26:27.262Z,73.06
2022-08-23T00:28:58.979Z,73.24
2022-08-23T00:31:33.900Z,72.98
2022-08-23T00:34:05.631Z,72.81
2022-08-23T00:36:38.191Z,72.93
2022-08-23T00:39:11.288Z,72.96
2022-08-23T00:41:43.870Z,72.75
2022-08-23T00:44:55.900Z,72.46
2022-08-23T00:47:39.853Z,72.17
2022-08-23T00:50:29.879Z,72.33
2022-08-23T00:53:21.389Z,72.49
2022-08-23T00:55:58.309Z,73.05
2022-08-23T00:58:30.801Z,73.55
2022-08-23T01:01:05.323Z,73.59
2022-08-23T01:03:39.560Z,73.41
2022-08-23T01:06:24.105Z,73.36
2022-08-23T01:09:00.306Z,73.24
2022-08-23T01:11:48.929Z,73.08
2022-08-23T01:14:47.882Z,72.93
2022-08-23T01:17:25.348Z,72.63
2022-08-23T01:20:01.548Z,72.96
2022-08-23T01:22:57.491Z,73.13
2022-08-23T01:25:31.973Z,72.96
2022-08-23T01:28:03.568Z,73.43
2022-08-23T01:30:36.377Z,73.11
2022-08-23T01:33:08.850Z,73.42
2022-08-23T01:35:50.829Z,73.17
2022-08-23T01:38:26.606Z,72.69
2022-08-23T01:41:02.613Z,72.39
2022-08-23T01:43:35.620Z,72.67
2022-08-23T01:46:13.482Z,72.75
2022-08-23T01:48:48.004Z,72.63
2022-08-23T01:51:21.477Z,72.70
2022-08-23T01:53:55.708Z,72.97
2022-08-23T01:56:38.767Z,73.12
2022-08-23T01:59:13.405Z,72.86
2022-08-23T02:01:49.620Z,73.11
2022-08-23T02:04:24.725Z,72.89
2022-08-23T02:06:56.387Z,72.80
2022-08-23T02:09:32.673Z,73.25
2022-08-23T02:12:06.178Z,73.41
2022-08-23T02:14:42.514Z,73.59
2022-08-23T02:17:24.039Z,73.52
2022-08-23T02:19:59.033Z,73.39
2022-08-23T02:22:33.420Z,73.24
2022-08-23T02:25:06.245Z,72.92
2022-08-23T02:27:38.729Z,72.48
2022-08-23T02:30:17.115Z,72.39
2022-08-23T02:32:49.105Z,72.68
2022-08-23T02:35:25.723Z,73.02
2022-08-23T02:37:57.627Z,73.25
2022-08-23T02:40:29.472Z,73.14
2022-08-23T02:43:05.616Z,73.36
2022-08-23T02:45:38.388Z,73.64
2022-08-23T02:48:10.174Z,73.86
2022-08-23T02:50:59.325Z,73.66
2022-08-23T02:53:31.911Z,73.42
2022-08-23T02:56:21.233Z,73.09
2022-08-23T02:58:54.991Z,73.32
2022-08-23T03:01:31.041Z,73.36
2022-08-23T03:04:12.188Z,73.61
2022-08-23T03:06:46.998Z,73.67
2022-08-23T03:09:18.807Z,73.54
2022-08-23T03:11:50.693Z,73.22
2022-08-23T03:14:25.282Z,73.25
2022-08-23T03:16:58.376Z,73.42
2022-08-23T03:19:30.590Z,73.41
2022-08-23T03:22:02.243Z,73.36
2022-08-23T03:24:36.153Z,73.12
2022-08-23T03:27:08.275Z,73.42
2022-08-23T03:29:40.354Z,73.31
2022-08-23T03:32:12.496Z,73.73
2022-08-23T03:34:47.236Z,73.65
2022-08-23T03:37:20.292Z,73.46
2022-08-23T03:39:52.361Z,73.55
2022-08-23T03:42:30.859Z,73.82
2022-08-23T03:45:03.522Z,74.27
2022-08-23T03:47:35.741Z,74.25
2022-08-23T03:50:07.814Z,73.96
2022-08-23T03:52:42.068Z,73.88
2022-08-23T03:55:15.461Z,73.32
2022-08-23T03:57:49.644Z,73.32
2022-08-23T04:00:24.640Z,73.41
2022-08-23T04:03:01.148Z,73.85
2022-08-23T04:05:33.524Z,73.78
2022-08-23T04:08:11.219Z,73.83
2022-08-23T04:10:46.640Z,73.79
2022-08-23T04:13:18.245Z,74.06
2022-08-23T04:15:50.178Z,73.60
2022-08-23T04:18:24.000Z,73.27
2022-08-23T04:20:56.128Z,73.06
2022-08-23T04:23:28.292Z,73.48
2022-08-23T04:26:01.850Z,73.26
2022-08-23T04:28:37.239Z,73.47
2022-08-23T04:31:09.005Z,73.56
2022-08-23T04:33:42.032Z,73.30
2022-08-23T04:36:17.496Z,73.29
2022-08-23T04:38:49.129Z,73.72
2022-08-23T04:41:39.681Z,74.32
2022-08-23T04:44:11.375Z,73.89
2022-08-23T04:46:46.942Z,73.42
2022-08-23T04:49:19.108Z,73.05
2022-08-23T04:51:55.561Z,73.31
2022-08-23T04:54:29.322Z,73.25
2022-08-23T04:57:09.977Z,73.55
2022-08-23T04:59:43.929Z,73.53
2022-08-23T05:02:15.591Z,73.76
2022-08-23T05:04:47.653Z,73.56
2022-08-23T05:07:19.514Z,73.87
2022-08-23T05:10:03.292Z,74.17
2022-08-23T05:12:35.362Z,74.08
2022-08-23T05:15:09.514Z,73.67
2022-08-23T05:17:44.069Z,73.58
2022-08-23T05:20:15.856Z,73.91
2022-08-23T05:22:48.677Z,74.14
2022-08-23T05:25:49.392Z,74.21
2022-08-23T05:28:34.639Z,74.07
2022-08-23T05:31:16.720Z,74.41
2022-08-23T05:33:55.721Z,74.61
2022-08-23T05:36:37.903Z,74.78
2022-08-23T05:39:28.747Z,74.68
2022-08-23T05:42:12.503Z,74.36
2022-08-23T05:44:45.183Z,74.52
2022-08-23T05:47:17.597Z,74.56
2022-08-23T05:50:28.652Z,74.15
2022-08-23T05:53:00.392Z,74.41
2022-08-23T05:55:35.760Z,74.02
2022-08-23T05:58:22.676Z,73.94
2022-08-23T06:00:55.396Z,73.70
2022-08-23T06:03:27.324Z,73.32
2022-08-23T06:06:01.565Z,73.52
2022-08-23T06:08:35.519Z,73.20
2022-08-23T06:11:13.575Z,73.56
2022-08-23T06:13:54.031Z,74.10
2022-08-23T06:16:34.564Z,74.19
2022-08-23T06:19:08.530Z,74.39
2022-08-23T06:21:53.052Z,74.46
2022-08-23T06:24:46.403Z,74.59
2022-08-23T06:27:20.330Z,74.38
2022-08-23T06:29:52.003Z,74.36
2022-08-23T06:32:35.657Z,73.72
2022-08-23T06:35:38.150Z,74.39
2022-08-23T06:38:14.557Z,74.34
2022-08-23T06:41:12.052Z,74.87
2022-08-23T06:43:48.874Z,75.68
2022-08-23T06:46:29.533Z,76.29
2022-08-23T06:49:05.270Z,76.74
2022-08-23T06:51:41.341Z,76.71
2022-08-23T06:54:26.681Z,76.84
2022-08-23T06:57:37.015Z,77.93
2022-08-23T07:00:35.059Z,77.58
2022-08-23T07:03:16.995Z,78.69
2022-08-23T07:06:07.874Z,78.74
2022-08-23T07:08:42.073Z,79.89
2022-08-23T07:11:15.010Z,80.32
2022-08-23T07:13:47.509Z,80.34
2022-08-23T07:16:20.241Z,81.23
2022-08-23T07:18:55.595Z,81.57
2022-08-23T07:21:27.424Z,82.24
2022-08-23T07:23:59.329Z,83.36
2022-08-23T07:26:31.297Z,82.15
2022-08-23T07:29:06.169Z,83.46
2022-08-23T07:31:44.242Z,82.75
2022-08-23T07:34:16.408Z,83.92
2022-08-23T07:36:49.958Z,84.49
2022-08-23T07:39:24.674Z,84.21
2022-08-23T07:41:59.042Z,84.39
2022-08-23T07:44:34.288Z,84.79
2022-08-23T07:47:06.519Z,84.88
2022-08-23T07:49:41.849Z,86.02
2022-08-23T07:52:14.709Z,85.68
2022-08-23T07:54:48.445Z,85.21
2022-08-23T07:57:40.467Z,85.93
2022-08-23T08:00:47.733Z,85.74
2022-08-23T08:03:39.867Z,86.60
2022-08-23T08:06:33.004Z,86.47
2022-08-23T08:09:05.951Z,86.42
2022-08-23T08:11:37.963Z,86.64
2022-08-23T08:14:10.706Z,86.80
2022-08-23T08:16:52.292Z,86.85
2022-08-23T08:19:42.648Z,86.91
2022-08-23T08:22:36.016Z,87.05
2022-08-23T08:25:27.587Z,86.92
2022-08-23T08:28:01.896Z,86.28
2022-08-23T08:30:35.814Z,86.63
2022-08-23T08:33:09.612Z,86.37
2022-08-23T08:35:41.618Z,85.58
2022-08-23T08:38:13.406Z,85.86
2022-08-23T08:40:45.879Z,86.85
2022-08-23T08:43:40.773Z,86.39
2022-08-23T08:46:24.466Z,85.85
2022-08-23T08:49:01.921Z,85.84
2022-08-23T08:51:53.753Z,86.81
2022-08-23T08:54:28.892Z,85.82
2022-08-23T08:57:03.446Z,85.63
2022-08-23T08:59:39.202Z,85.18
2022-08-23T09:02:20.089Z,83.38
2022-08-23T09:05:11.963Z,82.10
2022-08-23T09:08:02.029Z,81.09
2022-08-23T09:10:51.930Z,80.03
2022-08-23T09:13:41.045Z,78.89
2022-08-23T09:17:00.273Z,78.27
2022-08-23T09:19:37.610Z,76.70
2022-08-23T09:22:14.818Z,76.43
2022-08-23T09:24:46.549Z,76.00
2022-08-23T09:27:25.917Z,75.33
2022-08-23T09:30:01.251Z,75.41
2022-08-23T09:32:36.055Z,75.12
2022-08-23T09:35:12.664Z,75.14
2022-08-23T09:38:15.246Z,73.79
2022-08-23T09:40:51.172Z,73.56
2022-08-23T09:43:27.587Z,73.49
2022-08-23T09:46:04.514Z,73.46
2022-08-23T09:48:45.705Z,73.45
2022-08-23T09:51:36.200Z,73.29
2022-08-23T09:54:23.117Z,72.99
2022-08-23T09:57:10.260Z,72.25
2022-08-23T09:59:51.790Z,71.85
2022-08-23T10:02:32.688Z,71.34
2022-08-23T10:05:19.883Z,71.08
2022-08-23T10:08:00.453Z,70.57
2022-08-23T10:10:48.039Z,70.76
2022-08-23T10:13:27.001Z,71.63
2022-08-23T10:16:11.909Z,72.30
2022-08-23T10:19:38.415Z,71.90
2022-08-23T10:22:17.968Z,71.88
2022-08-23T10:25:30.711Z,70.88
2022-08-23T10:28:58.615Z,71.28
2022-08-23T10:31:47.403Z,71.39
2022-08-23T10:34:45.959Z,71.50
2022-08-23T10:37:44.950Z,71.78
2022-08-23T10:40:44.261Z,72.38
2022-08-23T10:43:30.800Z,72.24
2022-08-23T10:46:03.029Z,72.77
2022-08-23T10:48:54.775Z,71.39
2022-08-23T10:51:43.678Z,70.66
2022-08-23T10:54:46.512Z,71.15
2022-08-23T10:57:24.647Z,71.54
2022-08-23T10:59:59.176Z,71.55
2022-08-23T11:02:46.055Z,72.23
2022-08-23T11:05:35.838Z,72.05
2022-08-23T11:08:36.783Z,72.80
2022-08-23T11:11:37.685Z,74.01
2022-08-23T11:14:13.972Z,73.75
2022-08-23T11:16:46.577Z,74.07
2022-08-23T11:19:47.696Z,73.88
2022-08-23T11:22:32.928Z,73.74
2022-08-23T11:25:26.186Z,74.29
2022-08-23T11:28:25.819Z,74.42
2022-08-23T11:31:11.793Z,74.96
2022-08-23T11:33:50.221Z,75.24
2022-08-23T11:36:24.786Z,75.17
2022-08-23T11:38:56.662Z,75.00
2022-08-23T11:41:34.528Z,75.51
2022-08-23T11:44:08.938Z,75.42
2022-08-23T11:46:59.318Z,76.11
2022-08-23T11:49:52.954Z,75.88
2022-08-23T11:52:29.477Z,75.64
2022-08-23T11:55:17.671Z,74.95
2022-08-23T11:58:08.529Z,75.35
2022-08-23T12:01:07.360Z,75.57
2022-08-23T12:03:54.217Z,74.49
2022-08-23T12:06:52.993Z,74.26
2022-08-23T12:09:24.644Z,74.90
2022-08-23T12:11:56.251Z,74.90
2022-08-23T12:14:36.479Z,74.17
2022-08-23T12:17:25.891Z,74.95
2022-08-23T12:20:09.533Z,74.52
2022-08-23T12:23:08.047Z,74.74
2022-08-23T12:25:40.195Z,75.20
2022-08-23T12:28:41.017Z,75.22
2022-08-23T12:31:25.492Z,75.80
2022-08-23T12:34:17.231Z,74.96
2022-08-23T12:37:12.648Z,75.44
2022-08-23T12:39:52.394Z,75.71
2022-08-23T12:42:33.479Z,76.04
2022-08-23T12:45:08.007Z,76.40
2022-08-23T12:47:43.256Z,76.32
2022-08-23T12:50:15.102Z,76.90
2022-08-23T12:53:00.047Z,76.59
2022-08-23T12:55:37.112Z,75.94
2022-08-23T12:58:10.431Z,76.50
2022-08-23T13:00:55.083Z,75.64
2022-08-23T13:03:34.072Z,75.90
2022-08-23T13:06:13.019Z,75.54
2022-08-23T13:08:53.020Z,75.27
2022-08-23T13:11:27.727Z,75.84
2022-08-23T13:14:01.177Z,76.59
2022-08-23T13:16:44.135Z,75.43
2022-08-23T13:19:28.641Z,75.18
2022-08-23T13:22:19.012Z,74.83
2022-08-23T13:25:29.183Z,74.94
2022-08-23T13:28:06.066Z,76.00
2022-08-23T13:30:38.756Z,75.95
2022-08-23T13:33:10.720Z,76.29
2022-08-23T13:35:47.228Z,76.06
2022-08-23T13:38:30.566Z,75.11
2022-08-23T13:41:08.789Z,74.10
2022-08-23T13:43:43.675Z,74.40
2022-08-23T13:46:29.792Z,74.99
2022-08-23T13:49:19.383Z,75.10
2022-08-23T13:52:11.934Z,75.49
2022-08-23T13:54:53.034Z,74.94
2022-08-23T13:57:29.605Z,75.11
2022-08-23T14:00:02.381Z,75.74
2022-08-23T14:02:48.821Z,75.90
2022-08-23T14:05:22.727Z,75.74
2022-08-23T14:07:54.475Z,76.27
2022-08-23T14:10:26.909Z,76.76
2022-08-23T14:12:59.783Z,76.25
2022-08-23T14:18:23.325Z,76.71
2022-08-23T14:20:56.357Z,76.55
2022-08-23T14:23:27.971Z,76.20
2022-08-23T14:25:59.658Z,75.62
2022-08-23T14:28:31.332Z,75.86
2022-08-23T14:31:02.956Z,76.20
2022-08-23T14:33:34.724Z,76.46
2022-08-23T14:36:07.217Z,76.68
2022-08-23T14:38:41.000Z,76.55
2022-08-23T14:41:17.865Z,76.60
2022-08-23T14:43:50.743Z,76.45
2022-08-23T14:46:24.270Z,76.34
2022-08-23T14:48:56.001Z,76.74
2022-08-23T14:51:33.882Z,76.77
2022-08-23T14:54:07.462Z,76.99
2022-08-23T14:56:39.110Z,76.69
2022-08-23T14:59:10.928Z,77.13
2022-08-23T15:01:43.141Z,77.51
2022-08-23T15:04:18.962Z,77.74
2022-08-23T15:09:47.207Z,77.96
2022-08-23T15:15:15.853Z,78.15
2022-08-23T15:17:58.845Z,77.90
2022-08-23T15:20:36.808Z,78.02
2022-08-23T15:23:09.411Z,77.23
2022-08-23T15:25:43.825Z,77.52
2022-08-23T15:28:17.784Z,77.58
2022-08-23T15:30:51.484Z,78.24
2022-08-23T15:33:27.115Z,77.86
2022-08-23T15:36:08.258Z,77.76
2022-08-23T15:38:42.311Z,78.06
2022-08-23T15:41:16.424Z,78.39
2022-08-23T15:43:48.112Z,78.66
2022-08-23T15:46:22.897Z,78.55
2022-08-23T15:49:02.621Z,78.93
2022-08-23T15:51:37.854Z,79.03
2022-08-23T15:54:10.538Z,78.95
2022-08-23T15:56:46.900Z,79.07
2022-08-23T15:59:21.620Z,78.78
2022-08-23T16:01:53.670Z,79.33
2022-08-23T16:04:25.267Z,78.77
2022-08-23T16:06:59.914Z,79.09
2022-08-23T16:09:32.152Z,79.36
2022-08-23T16:12:07.269Z,79.17
2022-08-23T16:14:38.870Z,78.93
2022-08-23T16:17:10.807Z,78.69
2022-08-23T16:19:43.717Z,78.19
2022-08-23T16:22:16.280Z,78.82
2022-08-23T16:24:47.882Z,78.75
2022-08-23T16:27:19.985Z,78.02
2022-08-23T16:29:51.673Z,78.18
2022-08-23T16:32:23.450Z,77.75
2022-08-23T16:34:55.098Z,77.89
2022-08-23T16:37:26.796Z,77.93
2022-08-23T16:40:04.766Z,77.85
2022-08-23T16:42:39.359Z,77.54
2022-08-23T16:45:11.701Z,77.77
2022-08-23T16:47:44.792Z,77.68
2022-08-23T16:50:16.501Z,77.78
2022-08-23T16:52:48.139Z,77.70
2022-08-23T16:55:19.821Z,77.64
2022-08-23T16:57:51.461Z,77.44
2022-08-23T17:00:23.206Z,77.53
2022-08-23T17:03:01.983Z,77.11
2022-08-23T17:05:33.923Z,76.90
2022-08-23T17:08:05.544Z,76.92
2022-08-23T17:10:37.659Z,76.91
2022-08-23T17:13:11.421Z,77.16
2022-08-23T17:15:43.124Z,76.93
2022-08-23T17:18:14.742Z,76.79
2022-08-23T17:20:46.406Z,76.14
2022-08-23T17:23:18.548Z,75.81
2022-08-23T17:25:50.523Z,75.72
2022-08-23T17:28:22.233Z,75.52
2022-08-23T17:30:55.589Z,75.66
2022-08-23T17:33:27.480Z,75.39
2022-08-23T17:35:59.068Z,75.78
2022-08-23T17:38:31.338Z,75.69
2022-08-23T17:41:05.713Z,75.46
2022-08-23T17:43:37.287Z,75.50
2022-08-23T17:46:12.936Z,75.61
2022-08-23T17:48:44.856Z,75.43
2022-08-23T17:51:16.489Z,75.64
2022-08-23T17:53:48.133Z,75.62
2022-08-23T17:56:20.909Z,76.03
2022-08-23T17:58:52.549Z,76.09
2022-08-23T18:01:24.636Z,76.18
2022-08-23T18:03:56.357Z,76.01
2022-08-23T18:06:28.563Z,75.86
2022-08-23T18:09:02.909Z,76.75
2022-08-23T18:11:35.434Z,76.42
2022-08-23T18:14:07.197Z,75.79
2022-08-23T18:16:39.428Z,76.44
2022-08-23T18:19:13.225Z,76.01
2022-08-23T18:21:46.612Z,75.92
2022-08-23T18:24:18.897Z,76.08
2022-08-23T18:27:09.093Z,76.86
2022-08-23T18:29:40.755Z,76.21
2022-08-23T18:32:16.843Z,76.24
2022-08-23T18:34:48.684Z,76.41
2022-08-23T18:37:21.852Z,76.38
2022-08-23T18:39:53.589Z,76.61
2022-08-23T18:42:26.125Z,77.13
2022-08-23T18:44:57.728Z,77.09
2022-08-23T18:47:30.252Z,76.74
2022-08-23T18:50:05.518Z,76.39
2022-08-23T18:52:37.473Z,76.69
2022-08-23T18:55:09.523Z,76.49
2022-08-23T18:57:41.096Z,76.72
2022-08-23T19:00:13.310Z,76.65
2022-08-23T19:02:45.062Z,76.16
2022-08-23T19:05:16.846Z,75.96
2022-08-23T19:07:48.757Z,76.26
2022-08-23T19:10:21.161Z,76.32
2022-08-23T19:12:54.603Z,76.53
2022-08-23T19:15:29.359Z,76.49
2022-08-23T19:18:01.896Z,76.33
2022-08-23T19:20:33.541Z,76.01
2022-08-23T19:23:05.217Z,75.86
2022-08-23T19:25:38.531Z,75.78
2022-08-23T19:28:11.305Z,75.56
2022-08-23T19:30:43.822Z,76.42
2022-08-23T19:33:16.386Z,76.16
2022-08-23T19:35:48.091Z,75.97
2022-08-23T19:38:19.859Z,75.84
2022-08-23T19:40:51.711Z,75.78
2022-08-23T19:43:24.054Z,76.07
2022-08-23T19:45:55.702Z,76.00
2022-08-23T19:48:27.437Z,75.68
2022-08-23T19:50:59.141Z,75.54
2022-08-23T19:53:30.754Z,75.81
2022-08-23T19:56:03.251Z,76.28
2022-08-23T19:58:35.732Z,76.10
2022-08-23T20:01:07.453Z,75.86
2022-08-23T20:03:39.086Z,75.82
2022-08-23T20:06:15.121Z,75.69
2022-08-23T20:08:50.931Z,76.22
2022-08-23T20:11:24.162Z,75.97
2022-08-23T20:13:56.656Z,76.00
2022-08-23T20:16:29.891Z,76.05
2022-08-23T20:19:01.573Z,75.85
2022-08-23T20:21:33.415Z,75.78
2022-08-23T20:24:05.934Z,75.86
2022-08-23T20:26:40.696Z,76.06
2022-08-23T20:29:18.768Z,76.10
2022-08-23T20:32:00.258Z,76.05
2022-08-23T20:34:37.021Z,76.06
2022-08-23T20:37:08.773Z,76.04
2022-08-23T20:39:40.423Z,75.67
2022-08-23T20:42:12.092Z,75.82
2022-08-23T20:44:43.807Z,75.74
2022-08-23T20:47:15.530Z,75.90
2022-08-23T20:49:47.141Z,75.90
2022-08-23T20:52:19.873Z,75.79
2022-08-23T20:54:52.153Z,75.83
2022-08-23T20:57:23.811Z,76.10
2022-08-23T21:00:00.273Z,76.16
2022-08-23T21:02:32.005Z,76.05
2022-08-23T21:05:06.500Z,75.90
2022-08-23T21:07:38.777Z,76.02
2022-08-23T21:10:10.513Z,76.54
2022-08-23T21:12:42.193Z,76.83
2022-08-23T21:15:14.094Z,76.72
2022-08-23T21:17:46.742Z,76.93
2022-08-23T21:20:19.476Z,76.83
2022-08-23T21:22:51.257Z,76.82
2022-08-23T21:25:25.992Z,76.97
2022-08-23T21:28:02.110Z,78.98
2022-08-23T21:30:36.468Z,77.20
2022-08-23T21:33:08.035Z,75.53
2022-08-23T21:35:39.609Z,74.87
2022-08-23T21:38:11.276Z,74.88
2022-08-23T21:40:43.371Z,74.71
2022-08-23T21:43:14.997Z,74.51
2022-08-23T21:45:46.593Z,74.38
2022-08-23T21:48:18.350Z,74.46
2022-08-23T21:50:51.762Z,74.72
2022-08-23T21:53:23.405Z,74.67
2022-08-23T21:55:55.083Z,74.50
2022-08-23T21:58:26.941Z,74.60
2022-08-23T22:00:59.005Z,74.60
2022-08-23T22:03:30.582Z,74.32
2022-08-23T22:06:05.419Z,74.35
2022-08-23T22:08:37.041Z,74.47
2022-08-23T22:11:11.252Z,74.50
2022-08-23T22:13:43.096Z,74.28
2022-08-23T22:16:14.691Z,74.64
2022-08-23T22:18:46.380Z,74.57
2022-08-23T22:21:18.034Z,74.49
2022-08-23T22:23:49.611Z,74.49
2022-08-23T22:26:21.295Z,74.83
2022-08-23T22:28:53.479Z,74.82
2022-08-23T22:31:25.171Z,74.87
2022-08-23T22:33:56.898Z,74.70
2022-08-23T22:36:29.742Z,74.91
2022-08-23T22:39:01.336Z,74.91
2022-08-23T22:41:33.060Z,74.94
2022-08-23T22:44:05.478Z,74.99
2022-08-23T22:46:37.143Z,74.93
2022-08-23T22:49:09.370Z,74.87
2022-08-23T22:51:41.387Z,74.97
2022-08-23T22:54:14.831Z,74.78
2022-08-23T22:56:50.647Z,74.69
2022-08-23T22:59:27.420Z,74.62
2022-08-23T23:01:59.537Z,74.20
2022-08-23T23:04:34.545Z,74.10
2022-08-23T23:07:06.198Z,73.68
2022-08-23T23:09:37.789Z,73.62
2022-08-23T23:12:09.693Z,73.57
2022-08-23T23:14:41.313Z,73.64
2022-08-23T23:17:12.905Z,73.46
2022-08-23T23:20:03.140Z,73.63
2022-08-23T23:22:34.700Z,73.55
2022-08-23T23:25:06.610Z,73.38
2022-08-23T23:27:38.188Z,73.45
2022-08-23T23:30:10.499Z,73.52
2022-08-23T23:32:43.272Z,73.38
2022-08-23T23:35:14.975Z,73.36
2022-08-23T23:37:49.491Z,73.27
2022-08-23T23:40:23.097Z,73.34
2022-08-23T23:42:55.381Z,73.72
2022-08-23T23:45:27.376Z,73.45
2022-08-23T23:47:59.444Z,73.16
2022-08-23T23:50:31.208Z,73.10
2022-08-23T23:53:02.890Z,73.04
2022-08-23T23:55:34.601Z,72.95
2022-08-23T23:58:06.397Z,72.92
